Terminal Aerodrome Forecast
Issued by NWS Buffalo, NY

Home | Current Version | Previous Version | Text Only | Print | Product List | Glossary On
Versions: 1 2 3 4 5 6 7 8 9 10 11 12 13 14 15 16 17 18 19 20 21 22 23 24 25 26
249
FTUS41 KBUF 300521
TAFROC
TAF
KROC 300521Z 3006/3106 VRB03KT P6SM SKC
     FM301300 23005KT P6SM FEW250
     FM301800 27004KT P6SM SCT200
     FM302100 31005KT P6SM SCT200
     FM302300 VRB03KT P6SM SCT250
     FM310200 22005KT P6SM SCT250=

USA.gov is the U.S. government's official web portal to all federal, state and local government web resources and services.